createdAt,value
2017-03-02T00:00:02.877Z,997.36
2017-03-02T00:05:03.680Z,997.31
2017-03-02T00:10:03.479Z,997.38
2017-03-02T00:15:03.222Z,997.35
2017-03-02T00:20:03.019Z,997.45
2017-03-02T00:25:03.014Z,997.44
2017-03-02T00:30:02.859Z,997.54
2017-03-02T00:35:03.654Z,997.42
2017-03-02T00:40:03.468Z,997.46
2017-03-02T00:45:03.198Z,997.59
2017-03-02T00:50:02.902Z,997.62
2017-03-02T00:55:03.686Z,997.67
2017-03-02T01:00:03.353Z,997.72
2017-03-02T01:05:03.019Z,997.72
2017-03-02T01:10:02.805Z,997.64
2017-03-02T01:15:03.653Z,997.66
2017-03-02T01:20:03.443Z,997.61
2017-03-02T01:25:03.188Z,997.57
2017-03-02T01:30:02.819Z,997.46
2017-03-02T01:35:03.512Z,997.4
2017-03-02T01:40:03.507Z,997.42
2017-03-02T01:45:03.250Z,997.45
2017-03-02T01:50:02.842Z,997.48
2017-03-02T01:55:03.517Z,997.45
2017-03-02T02:00:03.344Z,997.41
2017-03-02T02:05:03.103Z,997.35
2017-03-02T02:10:02.870Z,997.21
2017-03-02T02:15:02.813Z,997.22
2017-03-02T02:20:02.795Z,997.23
2017-03-02T02:25:03.630Z,997.27
2017-03-02T02:30:03.280Z,997.18
2017-03-02T02:35:03.016Z,997.21
2017-03-02T02:40:02.778Z,997.05
2017-03-02T02:45:02.751Z,997.02
2017-03-02T02:50:03.479Z,996.85
2017-03-02T02:55:03.227Z,996.84
2017-03-02T03:00:02.989Z,996.84
2017-03-02T03:05:02.724Z,997.09
2017-03-02T03:10:03.515Z,997.32
2017-03-02T03:15:03.526Z,997.15
2017-03-02T03:20:03.363Z,997.08
2017-03-02T03:25:03.144Z,997.23
2017-03-02T03:30:02.797Z,997.23
2017-03-02T03:35:03.595Z,997.47
2017-03-02T03:40:03.347Z,997.34
2017-03-02T03:45:03.137Z,997.66
2017-03-02T03:50:02.935Z,997.64
2017-03-02T03:55:02.734Z,997.52
2017-03-02T04:00:03.618Z,997.75
2017-03-02T04:05:03.511Z,997.62
2017-03-02T04:10:03.444Z,997.62
2017-03-02T04:15:03.195Z,997.93
2017-03-02T04:20:03.282Z,998.14
2017-03-02T04:25:03.161Z,998.01
2017-03-02T04:30:03.158Z,998.35
2017-03-02T04:35:02.959Z,998.34
2017-03-02T04:40:03.638Z,998.16
2017-03-02T04:45:03.594Z,998.27
2017-03-02T04:50:03.385Z,998.73
2017-03-02T04:55:03.211Z,998.49
2017-03-02T05:00:03.015Z,998.62
2017-03-02T05:05:03.041Z,999.04
2017-03-02T05:10:03.034Z,999.12
2017-03-02T05:15:02.724Z,999.17
2017-03-02T05:20:03.583Z,999.17
2017-03-02T05:25:03.467Z,999.18
2017-03-02T05:30:03.249Z,999.46
2017-03-02T05:35:03.000Z,999.54
2017-03-02T05:40:02.732Z,999.28
2017-03-02T05:45:03.476Z,999.53
2017-03-02T05:50:03.472Z,999.69
2017-03-02T05:55:03.248Z,999.53
2017-03-02T06:00:02.862Z,999.76
2017-03-02T06:05:02.898Z,999.85
2017-03-02T06:10:02.796Z,999.9
2017-03-02T06:15:03.513Z,999.89
2017-03-02T06:20:03.146Z,999.99
2017-03-02T06:25:02.732Z,999.87
2017-03-02T06:30:03.550Z,1000.32
2017-03-02T06:35:03.395Z,1000.39
2017-03-02T06:40:03.191Z,1000.34
2017-03-02T06:45:02.850Z,1000.62
2017-03-02T06:50:03.654Z,1000.41
2017-03-02T06:55:03.471Z,1000.37
2017-03-02T07:00:03.496Z,1000.29
2017-03-02T07:05:03.149Z,1000.63
2017-03-02T07:10:03.083Z,1000.69
2017-03-02T07:15:02.919Z,1001.02
2017-03-02T07:20:02.951Z,1001.5
2017-03-02T07:25:02.738Z,1001.49
2017-03-02T07:30:02.814Z,1001.57
2017-03-02T07:35:03.408Z,1001.99
2017-03-02T07:40:03.457Z,1002.25
2017-03-02T07:45:03.185Z,1002.13
2017-03-02T07:50:02.983Z,1002.37
2017-03-02T07:55:02.760Z,1002.41
2017-03-02T08:00:03.657Z,1002.47
2017-03-02T08:05:03.453Z,1002.49
2017-03-02T08:10:03.260Z,1002.58
2017-03-02T08:15:03.134Z,1002.46
2017-03-02T08:20:02.760Z,1002.83
2017-03-02T08:25:03.593Z,1002.83
2017-03-02T08:30:03.381Z,1002.93
2017-03-02T08:35:02.996Z,1003.04
2017-03-02T08:40:03.075Z,1003.02
2017-03-02T08:45:03.091Z,1003.22
2017-03-02T08:50:02.928Z,1003.31
2017-03-02T08:55:02.783Z,1003.44
2017-03-02T09:00:02.894Z,1003.54
2017-03-02T09:05:02.740Z,1003.72
2017-03-02T09:10:03.507Z,1003.76
2017-03-02T09:15:03.476Z,1004.07
2017-03-02T09:20:03.227Z,1004.01
2017-03-02T09:25:03.035Z,1004.2
2017-03-02T09:30:02.735Z,1004.27
2017-03-02T09:35:02.707Z,1004.5
2017-03-02T09:40:03.491Z,1004.5
2017-03-02T09:45:03.201Z,1004.63
2017-03-02T09:50:02.875Z,1004.62
2017-03-02T09:55:03.614Z,1004.79
2017-03-02T10:00:03.413Z,1004.93
2017-03-02T10:05:04.829Z,1005.1
2017-03-02T10:10:02.791Z,1005.2
2017-03-02T10:15:03.662Z,1005.04
2017-03-02T10:20:02.785Z,1005.36
2017-03-02T10:25:03.591Z,1005.53
2017-03-02T10:30:03.362Z,1005.67
2017-03-02T10:35:03.185Z,1005.76
2017-03-02T10:40:03.228Z,1005.79
2017-03-02T10:45:03.238Z,1005.77
2017-03-02T10:50:03.035Z,1006.23
2017-03-02T10:55:03.379Z,1005.77
2017-03-02T11:00:03.027Z,1006.46
2017-03-02T11:05:02.874Z,1006.54
2017-03-02T11:10:02.750Z,1006.73
2017-03-02T11:15:03.635Z,1006.72
2017-03-02T11:20:03.380Z,1006.9
2017-03-02T11:25:03.163Z,1007.05
2017-03-02T11:30:03.137Z,1007.1
2017-03-02T11:35:03.316Z,1007.19
2017-03-02T11:40:03.479Z,1007.21
2017-03-02T11:45:02.735Z,1007.14
2017-03-02T11:50:02.789Z,1007.29
2017-03-02T11:55:03.517Z,1007.42
2017-03-02T12:00:03.635Z,1007.52
2017-03-02T12:05:03.656Z,1007.55
2017-03-02T12:10:03.736Z,1007.74
2017-03-02T12:15:03.514Z,1007.77
2017-03-02T12:20:03.552Z,1007.73
2017-03-02T12:25:03.505Z,1008.01
2017-03-02T12:30:03.596Z,1008.12
2017-03-02T12:35:03.570Z,1007.95
2017-03-02T12:40:03.310Z,1008.23
2017-03-02T12:45:03.385Z,1008.22
2017-03-02T12:50:03.438Z,1008.2
2017-03-02T12:55:03.177Z,1008.25
2017-03-02T13:00:02.939Z,1008.24
2017-03-02T13:05:02.826Z,1008.39
2017-03-02T13:10:03.657Z,1008.44
2017-03-02T13:15:03.635Z,1008.55
2017-03-02T13:20:03.513Z,1008.5
2017-03-02T13:25:03.336Z,1008.48
2017-03-02T13:30:03.316Z,1008.55
2017-03-02T13:35:03.108Z,1008.54
2017-03-02T13:40:03.079Z,1008.67
2017-03-02T13:45:03.048Z,1009.07
2017-03-02T13:50:03.158Z,1009.1
2017-03-02T13:55:02.829Z,1009.17
2017-03-02T14:00:02.962Z,1009.16
2017-03-02T14:05:03.108Z,1009.3
2017-03-02T14:10:03.167Z,1009.43
2017-03-02T14:15:03.119Z,1009.32
2017-03-02T14:20:03.146Z,1009.23
2017-03-02T14:25:03.106Z,1009.31
2017-03-02T14:30:03.116Z,1009.32
2017-03-02T14:35:02.927Z,1009.39
2017-03-02T14:40:02.809Z,1009.48
2017-03-02T14:45:02.932Z,1009.5
2017-03-02T14:50:02.838Z,1009.52
2017-03-02T14:55:02.882Z,1009.7
2017-03-02T15:00:03.113Z,1009.64
2017-03-02T15:05:03.118Z,1009.81
2017-03-02T15:10:03.108Z,1010.03
2017-03-02T15:15:03.125Z,1010.06
2017-03-02T15:20:02.956Z,1010.2
2017-03-02T15:25:02.898Z,1010.14
2017-03-02T15:30:03.007Z,1010.19
2017-03-02T15:35:02.865Z,1010.27
2017-03-02T15:40:02.944Z,1010.32
2017-03-02T15:45:02.927Z,1010.39
2017-03-02T15:50:02.742Z,1010.55
2017-03-02T15:55:03.561Z,1010.5
2017-03-02T16:00:03.375Z,1010.47
2017-03-02T16:05:03.259Z,1010.63
2017-03-02T16:10:03.316Z,1010.69
2017-03-02T16:15:03.204Z,1010.85
2017-03-02T16:20:03.066Z,1011.03
2017-03-02T16:25:02.856Z,1011.19
2017-03-02T16:30:03.646Z,1011.16
2017-03-02T16:35:03.697Z,1011.3
2017-03-02T16:40:03.539Z,1011.36
2017-03-02T16:45:03.502Z,1011.39
2017-03-02T16:50:03.344Z,1011.44
2017-03-02T16:55:03.264Z,1011.41
2017-03-02T17:00:02.911Z,1011.55
2017-03-02T17:05:02.870Z,1011.59
2017-03-02T17:10:03.183Z,1011.61
2017-03-02T17:15:03.159Z,1011.66
2017-03-02T17:20:03.148Z,1011.87
2017-03-02T17:25:03.033Z,1012.02
2017-03-02T17:30:02.786Z,1012.24
2017-03-02T17:35:03.463Z,1012.18
2017-03-02T17:40:03.400Z,1012.31
2017-03-02T17:45:03.348Z,1012.41
2017-03-02T17:50:03.289Z,1012.51
2017-03-02T17:55:03.203Z,1012.59
2017-03-02T18:00:03.110Z,1012.63
2017-03-02T18:05:03.121Z,1012.72
2017-03-02T18:10:03.263Z,1012.84
2017-03-02T18:15:02.994Z,1012.89
2017-03-02T18:20:03.091Z,1012.93
2017-03-02T18:25:03.094Z,1013.05
2017-03-02T18:30:02.976Z,1013.17
2017-03-02T18:35:02.835Z,1013.13
2017-03-02T18:40:03.658Z,1013.22
2017-03-02T18:45:03.469Z,1013.34
2017-03-02T18:50:03.176Z,1013.32
2017-03-02T18:55:03.026Z,1013.31
2017-03-02T19:00:02.884Z,1013.39
2017-03-02T19:05:02.800Z,1013.47
2017-03-02T19:10:03.617Z,1013.55
2017-03-02T19:15:03.518Z,1013.54
2017-03-02T19:20:03.530Z,1013.55
2017-03-02T19:25:03.362Z,1013.64
2017-03-02T19:30:03.385Z,1013.64
2017-03-02T19:35:03.201Z,1013.7
2017-03-02T19:40:03.275Z,1013.77
2017-03-02T19:45:03.196Z,1013.77
2017-03-02T19:50:02.947Z,1013.87
2017-03-02T19:55:02.826Z,1013.89
2017-03-02T20:00:02.842Z,1013.95
2017-03-02T20:05:03.664Z,1013.94
2017-03-02T20:10:02.725Z,1013.98
2017-03-02T20:15:03.452Z,1013.96
2017-03-02T20:20:03.333Z,1013.92
2017-03-02T20:25:03.267Z,1013.99
2017-03-02T20:30:03.093Z,1013.91
2017-03-02T20:35:02.898Z,1013.9
2017-03-02T20:40:02.810Z,1013.9
2017-03-02T20:45:03.658Z,1014.06
2017-03-02T20:50:03.495Z,1014.09
2017-03-02T20:55:03.331Z,1014.01
2017-03-02T21:00:03.214Z,1014.02
2017-03-02T21:05:03.019Z,1014.09
2017-03-02T21:10:02.892Z,1014.09
2017-03-02T21:15:03.631Z,1014.15
2017-03-02T21:20:03.541Z,1013.99
2017-03-02T21:25:03.547Z,1014.07
2017-03-02T21:30:03.600Z,1014.13
2017-03-02T21:35:03.447Z,1014.16
2017-03-02T21:40:03.581Z,1014.22
2017-03-02T21:45:03.428Z,1014.24
2017-03-02T21:50:03.200Z,1014.26
2017-03-02T21:55:03.206Z,1014.3
2017-03-02T22:00:02.898Z,1014.31
2017-03-02T22:05:02.763Z,1014.25
2017-03-02T22:10:03.658Z,1014.37
2017-03-02T22:15:03.490Z,1014.33
2017-03-02T22:20:03.297Z,1014.33
2017-03-02T22:25:03.428Z,1014.29
2017-03-02T22:30:03.364Z,1014.42
2017-03-02T22:35:03.178Z,1014.38
2017-03-02T22:40:02.946Z,1014.34
2017-03-02T22:45:03.661Z,1014.34
2017-03-02T22:50:03.597Z,1014.32
2017-03-02T22:55:03.410Z,1014.32
2017-03-02T23:00:03.229Z,1014.34
2017-03-02T23:05:02.938Z,1014.32
2017-03-02T23:10:02.737Z,1014.38
2017-03-02T23:15:02.744Z,1014.45
2017-03-02T23:20:03.471Z,1014.37
2017-03-02T23:25:03.204Z,1014.38
2017-03-02T23:30:02.897Z,1014.34
2017-03-02T23:35:02.726Z,1014.37
2017-03-02T23:40:03.510Z,1014.34
2017-03-02T23:45:03.552Z,1014.29
2017-03-02T23:50:03.352Z,1014.4
2017-03-02T23:55:03.022Z,1014.27
